PWSweather.com
Personal Weather Stations
Station Observations
KNVELKO7
Elko, NV 89801

Elko, NV 89801

Lat: 40.963233, Lon: -115.592836

Elevation: 5230

Station Type: WS-2812

Latest ConditionsUpdated 5:10:08 AM PDT Sunday, Sep 25, 2016
Currently Today's Max Today's Min Today's Average
Temperature 33.5°F0.8°C 40.7°F4.8°C 33.5°F0.8°C 36.2°F2.3°C
Dew Point 27.9°F-2.3°C 30.6°F-0.8°C 27.0°F-2.8°C 28.8°F-1.8°C
Winds Calm Calm 7.4 mph NNE11.9 kmh NNE - 2.7 mph 4.3 kmh
Wind Gusts 2.0 mph3.2 kmh 9.2 mph14.8 kmh - -
Humidity 80% 80% 64% 74%
Pressure 30.42 in1030.1 mb 30.42 in1030.1 mb 30.40 in1029.5 mb -
Hour Temp Dew Point Humidity Winds Wind Gusts Pressure Precip Precip Rate Daily Precip Total
05:10 AM 33.5°F0.8°C 27.9°F-2.3°C 80% Calm Calm 2.0 mph3.2 kmh 30.42 in1030.1 mb 0.00 in0.0 mm 0.00 in0.0 mm 0.00 in0.0 mm
05:05 AM 33.7°F0.9°C 28.1°F-2.2°C 80% 1.2 mph ESE1.9 kmh ESE 2.2 mph3.5 kmh 30.42 in1030.1 mb 0.00 in0.0 mm 0.00 in0.0 mm 0.00 in0.0 mm
05:00 AM 33.8°F1.0°C 28.3°F-2.1°C 80% 0.8 mph NE1.3 kmh NE 2.2 mph3.5 kmh 30.42 in1030.1 mb 0.00 in0.0 mm 0.00 in0.0 mm 0.00 in0.0 mm
04:54 AM 33.8°F1.0°C 28.3°F-2.1°C 80% 0.4 mph NE0.6 kmh NE 3.4 mph5.5 kmh 30.42 in1030.1 mb 0.00 in0.0 mm 0.00 in0.0 mm 0.00 in0.0 mm
04:49 AM 33.8°F1.0°C 27.9°F-2.3°C 79% 1.4 mph NNE2.3 kmh NNE 4.7 mph7.6 kmh 30.42 in1030.1 mb 0.00 in0.0 mm 0.00 in0.0 mm 0.00 in0.0 mm
04:44 AM 33.5°F0.8°C 27.3°F-2.6°C 78% 4.0 mph NNE6.4 kmh NNE 4.7 mph7.6 kmh 30.42 in1030.1 mb 0.00 in0.0 mm 0.00 in0.0 mm 0.00 in0.0 mm
04:39 AM 33.7°F0.9°C 27.5°F-2.5°C 78% 2.2 mph N3.5 kmh N 4.0 mph6.4 kmh 30.41 in1029.8 mb 0.00 in0.0 mm 0.00 in0.0 mm 0.00 in0.0 mm
04:34 AM 34.0°F1.1°C 28.1°F-2.2°C 79% 1.5 mph N2.4 kmh N 3.1 mph5.0 kmh 30.41 in1029.8 mb 0.00 in0.0 mm 0.00 in0.0 mm 0.00 in0.0 mm
04:29 AM 34.2°F1.2°C 28.3°F-2.1°C 79% 2.9 mph N4.7 kmh N 5.8 mph9.3 kmh 30.42 in1030.1 mb 0.00 in0.0 mm 0.00 in0.0 mm 0.00 in0.0 mm
04:25 AM 34.0°F1.1°C 27.8°F-2.3°C 78% 4.0 mph N6.4 kmh N 5.8 mph9.3 kmh 30.42 in1030.1 mb 0.00 in0.0 mm 0.00 in0.0 mm 0.00 in0.0 mm
04:20 AM 33.8°F1.0°C 27.6°F-2.4°C 78% 3.3 mph 5.3 kmh 4.0 mph6.4 kmh 30.41 in1029.8 mb 0.00 in0.0 mm 0.00 in0.0 mm 0.00 in0.0 mm
04:15 AM 33.8°F1.0°C 27.6°F-2.4°C 78% 2.2 mph N3.5 kmh N 4.0 mph6.4 kmh 30.41 in1029.8 mb 0.00 in0.0 mm 0.00 in0.0 mm 0.00 in0.0 mm
04:10 AM 33.8°F1.0°C 27.9°F-2.3°C 79% 1.4 mph ESE2.3 kmh ESE 3.4 mph5.5 kmh 30.41 in1029.8 mb 0.00 in0.0 mm 0.00 in0.0 mm 0.00 in0.0 mm
04:05 AM 33.8°F1.0°C 27.6°F-2.4°C 78% 2.5 mph SE4.0 kmh SE 3.4 mph5.5 kmh 30.41 in1029.8 mb 0.00 in0.0 mm 0.00 in0.0 mm 0.00 in0.0 mm
04:00 AM 33.8°F1.0°C 27.6°F-2.4°C 78% 2.5 mph ESE4.0 kmh ESE 2.9 mph4.7 kmh 30.41 in1029.8 mb 0.00 in0.0 mm 0.00 in0.0 mm 0.00 in0.0 mm
03:54 AM 33.8°F1.0°C 27.6°F-2.4°C 78% 2.3 mph ESE3.7 kmh ESE 3.4 mph5.5 kmh 30.41 in1029.8 mb 0.00 in0.0 mm 0.00 in0.0 mm 0.00 in0.0 mm
03:49 AM 34.0°F1.1°C 27.8°F-2.3°C 78% 3.0 mph SE4.8 kmh SE 3.4 mph5.5 kmh 30.41 in1029.8 mb 0.00 in0.0 mm 0.00 in0.0 mm 0.00 in0.0 mm
03:44 AM 34.2°F1.2°C 28.0°F-2.2°C 78% 2.3 mph S3.7 kmh S 2.7 mph4.3 kmh 30.41 in1029.8 mb 0.00 in0.0 mm 0.00 in0.0 mm 0.00 in0.0 mm
03:39 AM 34.6°F1.4°C 28.4°F-2.0°C 78% 1.8 mph WSW2.9 kmh WSW 2.0 mph3.2 kmh 30.41 in1029.8 mb 0.00 in0.0 mm 0.00 in0.0 mm 0.00 in0.0 mm
03:34 AM 34.9°F1.6°C 28.7°F-1.8°C 78% 2.0 mph WNW3.2 kmh WNW 2.0 mph3.2 kmh 30.41 in1029.8 mb 0.00 in0.0 mm 0.00 in0.0 mm 0.00 in0.0 mm
03:29 AM 35.1°F1.7°C 28.9°F-1.7°C 78% Calm Calm 5.4 mph8.7 kmh 30.41 in1029.8 mb 0.00 in0.0 mm 0.00 in0.0 mm 0.00 in0.0 mm
03:24 AM 35.1°F1.7°C 28.9°F-1.7°C 78% 1.6 mph 2.6 kmh 5.4 mph8.7 kmh 30.41 in1029.8 mb 0.00 in0.0 mm 0.00 in0.0 mm 0.00 in0.0 mm
03:19 AM 34.9°F1.6°C 28.7°F-1.8°C 78% 5.2 mph NE8.4 kmh NE 5.4 mph8.7 kmh 30.41 in1029.8 mb 0.00 in0.0 mm 0.00 in0.0 mm 0.00 in0.0 mm
03:14 AM 34.6°F1.4°C 28.0°F-2.2°C 77% 2.8 mph 4.5 kmh 6.0 mph9.7 kmh 30.41 in1029.8 mb 0.00 in0.0 mm 0.00 in0.0 mm 0.00 in0.0 mm
03:09 AM 34.6°F1.4°C 28.0°F-2.2°C 77% 4.8 mph N7.7 kmh N 9.2 mph14.8 kmh 30.41 in1029.8 mb 0.00 in0.0 mm 0.00 in0.0 mm 0.00 in0.0 mm
03:04 AM 34.7°F1.5°C 28.2°F-2.1°C 77% 7.4 mph NNE11.9 kmh NNE 9.2 mph14.8 kmh 30.41 in1029.8 mb 0.00 in0.0 mm 0.00 in0.0 mm 0.00 in0.0 mm
03:00 AM 34.6°F1.4°C 27.7°F-2.4°C 76% 2.9 mph 4.7 kmh 6.9 mph11.1 kmh 30.41 in1029.8 mb 0.00 in0.0 mm 0.00 in0.0 mm 0.00 in0.0 mm
02:54 AM 34.7°F1.5°C 27.5°F-2.5°C 75% 4.3 mph N6.9 kmh N 6.9 mph11.1 kmh 30.41 in1029.8 mb 0.00 in0.0 mm 0.00 in0.0 mm 0.00 in0.0 mm
02:49 AM 34.6°F1.4°C 27.0°F-2.8°C 74% 4.9 mph NNE7.9 kmh NNE 5.4 mph8.7 kmh 30.42 in1030.1 mb 0.00 in0.0 mm 0.00 in0.0 mm 0.00 in0.0 mm
02:44 AM 34.9°F1.6°C 27.4°F-2.6°C 74% 4.3 mph NNE6.9 kmh NNE 5.1 mph8.2 kmh 30.42 in1030.1 mb 0.00 in0.0 mm 0.00 in0.0 mm 0.00 in0.0 mm
02:39 AM 35.3°F1.8°C 28.1°F-2.2°C 75% 3.3 mph NNW5.3 kmh NNW 3.8 mph6.1 kmh 30.42 in1030.1 mb 0.00 in0.0 mm 0.00 in0.0 mm 0.00 in0.0 mm
02:34 AM 35.6°F2.0°C 28.4°F-2.0°C 75% 1.4 mph SSW2.3 kmh SSW 2.9 mph4.7 kmh 30.42 in1030.1 mb 0.00 in0.0 mm 0.00 in0.0 mm 0.00 in0.0 mm
02:29 AM 35.6°F2.0°C 28.4°F-2.0°C 75% 2.3 mph SSW3.7 kmh SSW 2.9 mph4.7 kmh 30.42 in1030.1 mb 0.00 in0.0 mm 0.00 in0.0 mm 0.00 in0.0 mm
02:24 AM 36.0°F2.2°C 28.8°F-1.8°C 75% 0.9 mph ESE1.4 kmh ESE 2.5 mph4.0 kmh 30.42 in1030.1 mb 0.00 in0.0 mm 0.00 in0.0 mm 0.00 in0.0 mm
02:19 AM 36.2°F2.3°C 28.6°F-1.9°C 74% Calm Calm 2.5 mph4.0 kmh 30.42 in1030.1 mb 0.00 in0.0 mm 0.00 in0.0 mm 0.00 in0.0 mm
02:14 AM 36.5°F2.5°C 29.3°F-1.5°C 75% 2.5 mph ESE4.0 kmh ESE 2.5 mph4.0 kmh 30.42 in1030.1 mb 0.00 in0.0 mm 0.00 in0.0 mm 0.00 in0.0 mm
02:09 AM 36.7°F2.6°C 29.5°F-1.4°C 75% Calm Calm -- 30.42 in1030.1 mb 0.00 in0.0 mm 0.00 in0.0 mm 0.00 in0.0 mm
02:04 AM 36.9°F2.7°C 29.3°F-1.5°C 74% Calm Calm 2.5 mph4.0 kmh 30.42 in1030.1 mb 0.00 in0.0 mm 0.00 in0.0 mm 0.00 in0.0 mm
01:59 AM 37.1°F2.8°C 29.5°F-1.4°C 74% 2.2 mph 3.5 kmh 3.4 mph5.5 kmh 30.42 in1030.1 mb 0.00 in0.0 mm 0.00 in0.0 mm 0.00 in0.0 mm
01:54 AM 37.3°F2.9°C 29.4°F-1.4°C 73% 1.3 mph NE2.1 kmh NE 3.4 mph5.5 kmh 30.42 in1030.1 mb 0.00 in0.0 mm 0.00 in0.0 mm 0.00 in0.0 mm
01:49 AM 37.4°F3.0°C 29.6°F-1.3°C 73% 2.3 mph NNE3.7 kmh NNE 3.6 mph5.8 kmh 30.42 in1030.1 mb 0.00 in0.0 mm 0.00 in0.0 mm 0.00 in0.0 mm
01:44 AM 37.4°F3.0°C 29.6°F-1.3°C 73% 1.7 mph E2.7 kmh E 4.5 mph7.2 kmh 30.42 in1030.1 mb 0.00 in0.0 mm 0.00 in0.0 mm 0.00 in0.0 mm
01:39 AM 37.4°F3.0°C 29.3°F-1.5°C 72% 4.0 mph NE6.4 kmh NE 5.4 mph8.7 kmh 30.42 in1030.1 mb 0.00 in0.0 mm 0.00 in0.0 mm 0.00 in0.0 mm
01:34 AM 37.6°F3.1°C 29.1°F-1.6°C 71% 2.3 mph 3.7 kmh 5.4 mph8.7 kmh 30.42 in1030.1 mb 0.00 in0.0 mm 0.00 in0.0 mm 0.00 in0.0 mm
01:29 AM 37.8°F3.2°C 29.0°F-1.7°C 70% 3.8 mph N6.1 kmh N 4.0 mph6.4 kmh 30.42 in1030.1 mb 0.00 in0.0 mm 0.00 in0.0 mm 0.00 in0.0 mm
01:24 AM 38.2°F3.4°C 29.6°F-1.3°C 71% 3.3 mph 5.3 kmh 4.0 mph6.4 kmh 30.42 in1030.1 mb 0.00 in0.0 mm 0.00 in0.0 mm 0.00 in0.0 mm
01:19 AM 38.7°F3.7°C 29.8°F-1.2°C 70% 2.1 mph NE3.4 kmh NE 3.4 mph5.5 kmh 30.42 in1030.1 mb 0.00 in0.0 mm 0.00 in0.0 mm 0.00 in0.0 mm
01:13 AM 38.9°F3.8°C 29.9°F-1.2°C 70% 2.7 mph N4.3 kmh N 3.4 mph5.5 kmh 30.41 in1029.8 mb 0.00 in0.0 mm 0.00 in0.0 mm 0.00 in0.0 mm
01:08 AM 39.1°F3.9°C 30.1°F-1.1°C 70% 1.9 mph NNE3.1 kmh NNE 3.6 mph5.8 kmh 30.41 in1029.8 mb 0.00 in0.0 mm 0.00 in0.0 mm 0.00 in0.0 mm
01:03 AM 39.2°F4.0°C 30.6°F-0.8°C 71% 2.3 mph NW3.7 kmh NW 5.1 mph8.2 kmh 30.41 in1029.8 mb 0.00 in0.0 mm 0.00 in0.0 mm 0.00 in0.0 mm
12:59 AM 39.2°F4.0°C 30.2°F-1.0°C 70% 3.0 mph E4.8 kmh E 5.1 mph8.2 kmh 30.41 in1029.8 mb 0.00 in0.0 mm 0.00 in0.0 mm 0.00 in0.0 mm
12:54 AM 39.1°F3.9°C 30.1°F-1.1°C 70% 4.8 mph E7.7 kmh E 5.1 mph8.2 kmh 30.40 in1029.5 mb 0.00 in0.0 mm 0.00 in0.0 mm 0.00 in0.0 mm
12:49 AM 39.1°F3.9°C 30.1°F-1.1°C 70% 3.1 mph E5.0 kmh E 5.6 mph9.0 kmh 30.41 in1029.8 mb 0.00 in0.0 mm 0.00 in0.0 mm 0.00 in0.0 mm
12:44 AM 39.2°F4.0°C 29.9°F-1.2°C 69% 3.9 mph NE6.3 kmh NE 5.6 mph9.0 kmh 30.40 in1029.5 mb 0.00 in0.0 mm 0.00 in0.0 mm 0.00 in0.0 mm
12:39 AM 39.4°F4.1°C 30.4°F-0.9°C 70% 3.5 mph E5.6 kmh E 6.5 mph10.5 kmh 30.40 in1029.5 mb 0.00 in0.0 mm 0.00 in0.0 mm 0.00 in0.0 mm
12:34 AM 39.6°F4.2°C 30.6°F-0.8°C 70% 3.4 mph E5.5 kmh E 6.5 mph10.5 kmh 30.40 in1029.5 mb 0.00 in0.0 mm 0.00 in0.0 mm 0.00 in0.0 mm
12:29 AM 39.2°F4.0°C 29.9°F-1.2°C 69% 5.3 mph ENE8.5 kmh ENE 6.3 mph10.1 kmh 30.40 in1029.5 mb 0.00 in0.0 mm 0.00 in0.0 mm 0.00 in0.0 mm
12:24 AM 39.4°F4.1°C 30.1°F-1.1°C 69% 3.3 mph ESE5.3 kmh ESE 6.3 mph10.1 kmh 30.40 in1029.5 mb 0.00 in0.0 mm 0.00 in0.0 mm 0.00 in0.0 mm
12:19 AM 39.6°F4.2°C 29.9°F-1.2°C 68% 4.3 mph N6.9 kmh N 6.3 mph10.1 kmh 30.40 in1029.5 mb 0.00 in0.0 mm 0.00 in0.0 mm 0.00 in0.0 mm
12:14 AM 40.0°F4.4°C 29.8°F-1.2°C 67% 4.6 mph NNE7.4 kmh NNE 5.8 mph9.3 kmh 30.40 in1029.5 mb 0.00 in0.0 mm 0.00 in0.0 mm 0.00 in0.0 mm
12:09 AM 40.5°F4.7°C 30.3°F-0.9°C 67% 5.1 mph NNE8.2 kmh NNE 5.8 mph9.3 kmh 30.40 in1029.5 mb 0.00 in0.0 mm 0.00 in0.0 mm 0.00 in0.0 mm
12:04 AM 40.7°F4.8°C 29.4°F-1.4°C 64% 4.3 mph NE6.9 kmh NE 4.7 mph7.6 kmh 30.40 in1029.5 mb 0.00 in0.0 mm 0.00 in0.0 mm 0.00 in0.0 mm